Latino — OR4130 — position and weather

sailwx.info

Track history (hours):
 
Tides and Currents Weather Stations Pressure Air Temp Water Temp Dewpoint Dewpoint Depression Visibility Wind Speed Wind Dir Waves Ship Positions

Latino

Last reported at 2018-Aug-20 16:30 UTC. Time now 2018-Aug-20 16:46 UTC.
Position N 44°10' W 001°36'.

Length 12 m.

Type: Sailing vessel. MMSI: 205413010.

Date/timePositionNaut miles runAvg speedWind from/ knotsBaromVisibWave heightAir tempDewpointWater temp
2018-Aug-20 16:30N 44°10' W 001°36'3 6.1
2018-Aug-20 16:03N 44°08' W 001°37'0 6.0
2018-Aug-20 15:59N 44°07' W 001°37'3 5.9
2018-Aug-20 15:30N 44°04' W 001°38'3 5.6
2018-Aug-20 15:02N 44°02' W 001°39'0 5.4
2018-Aug-20 15:00N 44°02' W 001°39'5 5.4
2018-Aug-20 14:03N 43°57' W 001°40'0 5.4
2018-Aug-20 14:00N 43°56' W 001°40'3 5.2
2018-Aug-20 13:30N 43°54' W 001°40'2 5.2
2018-Aug-20 13:03N 43°52' W 001°41'0 5.2
2018-Aug-20 13:00N 43°51' W 001°41'3 5.2
2018-Aug-20 12:30N 43°49' W 001°41'3 5.3
2018-Aug-20 12:01N 43°46' W 001°42'0 5.4
2018-Aug-20 11:56N 43°46' W 001°42'2 5.4
2018-Aug-20 11:30N 43°43' W 001°43'2 5.3
2018-Aug-20 11:03N 43°41' W 001°43'0 5.3
2018-Aug-20 11:00N 43°41' W 001°43'3 5.3
2018-Aug-20 10:28N 43°38' W 001°44'2 5.4
2018-Aug-20 10:03N 43°36' W 001°44'0 5.5
2018-Aug-20 10:00N 43°36' W 001°44'3 5.3
2018-Aug-20 09:30N 43°33' W 001°45'2 4.9
2018-Aug-20 09:03N 43°31' W 001°45'0 4.2
2018-Aug-20 08:59N 43°30' W 001°46'3 5.3
2018-Aug-20 08:30N 43°28' W 001°46'3 5.9
2018-Aug-20 08:03N 43°25' W 001°47'0 3.0
2018-Aug-20 08:00N 43°25' W 001°47'3 0.2
2018-Aug-19 19:55N 43°23' W 001°48'0 0.0
2018-Aug-19 18:31N 43°23' W 001°48'0 0.0
2018-Aug-19 18:19N 43°23' W 001°48'0 0.0
2018-Aug-19 15:25N 43°23' W 001°48'0 0.0
2018-Aug-19 14:10N 43°23' W 001°48'0 0.0
2018-Aug-19 13:31N 43°23' W 001°48'0 0.0
2018-Aug-19 13:25N 43°23' W 001°48'0 0.1
2018-Aug-19 12:38N 43°23' W 001°48'1 3.0
2018-Aug-19 12:23N 43°23' W 001°47'1 3.7
2018-Aug-19 12:00N 43°24' W 001°49'2 4.7
2018-Aug-19 11:30N 43°23' W 001°52'2 4.8
2018-Aug-19 11:00N 43°22' W 001°55'2 4.8
2018-Aug-19 10:30N 43°22' W 001°58'2 4.8
2018-Aug-19 10:00N 43°21' W 002°02'2 4.9
2018-Aug-19 09:30N 43°21' W 002°05'3 5.0
2018-Aug-19 09:00N 43°20' W 002°08'3 4.9
2018-Aug-19 08:30N 43°19' W 002°12'2 4.4
2018-Aug-19 08:00N 43°19' W 002°14'  
2018-Aug-16 16:06N 43°18' W 002°15'0 4.0
2018-Aug-16 16:00N 43°19' W 002°15'2 3.7
2018-Aug-16 15:23N 43°19' W 002°12'2 5.5
2018-Aug-16 15:00N 43°19' W 002°14'4 7.1
2018-Aug-16 14:30N 43°20' W 002°19'3 5.8
2018-Aug-16 14:00N 43°21' W 002°23'3 5.5
2018-Aug-16 13:30N 43°23' W 002°26'3 6.2
2018-Aug-16 13:00N 43°24' W 002°30'3 6.8
2018-Aug-16 12:30N 43°26' W 002°34'3 6.5
2018-Aug-16 12:00N 43°27' W 002°38'3 6.6
2018-Aug-16 11:31N 43°29' W 002°42'3 6.0
2018-Aug-16 10:58N 43°30' W 002°46'3 6.0
2018-Aug-16 10:29N 43°29' W 002°50'3 5.7
2018-Aug-16 10:00N 43°29' W 002°54'5 5.3
2018-Aug-16 09:06N 43°26' W 002°59'1 5.5
2018-Aug-16 09:00N 43°26' W 002°60'3 5.0
2018-Aug-16 08:19N 43°24' W 003°04'4 4.1
2018-Aug-16 07:18N 43°20' W 003°01'0 0.8
2018-Aug-16 06:56N 43°20' W 003°01'0 0.0
2018-Aug-16 06:29N 43°20' W 003°01'0 0.0
2018-Aug-16 05:56N 43°20' W 003°01'0 0.0
2018-Aug-16 05:26N 43°20' W 003°01'0 0.0
2018-Aug-16 04:59N 43°20' W 003°01'0 0.0
2018-Aug-16 04:29N 43°20' W 003°01'0 0.0
2018-Aug-16 03:56N 43°20' W 003°01'0 0.0
2018-Aug-16 03:26N 43°20' W 003°01'0 0.0
2018-Aug-16 02:56N 43°20' W 003°01'0 0.0
2018-Aug-16 02:20N 43°20' W 003°01'0 0.0
2018-Aug-16 01:59N 43°20' W 003°01'0 0.0
2018-Aug-16 01:26N 43°20' W 003°01'0 0.0
2018-Aug-16 00:56N 43°20' W 003°01'0 0.0
2018-Aug-16 00:29N 43°20' W 003°01'0 0.0
2018-Aug-15 23:59N 43°20' W 003°01'0 0.0
2018-Aug-15 23:26N 43°20' W 003°01'0 0.0
2018-Aug-15 22:59N 43°20' W 003°01'0 0.0
2018-Aug-15 22:29N 43°20' W 003°01'0 0.0
2018-Aug-15 21:59N 43°20' W 003°01'0 0.0
2018-Aug-15 21:29N 43°20' W 003°01'0 0.0
2018-Aug-15 20:56N 43°20' W 003°01'0 0.0
2018-Aug-15 20:26N 43°20' W 003°01'0 0.0
2018-Aug-15 19:59N 43°20' W 003°01'0 0.0
2018-Aug-15 19:29N 43°20' W 003°01'0 0.0
2018-Aug-15 18:59N 43°20' W 003°01'0 0.0
2018-Aug-15 18:29N 43°20' W 003°01'0 0.0
2018-Aug-15 17:59N 43°20' W 003°01'0 0.0
2018-Aug-15 17:26N 43°20' W 003°01'0 0.0
2018-Aug-15 16:59N 43°20' W 003°01'0 0.0
2018-Aug-15 16:05N 43°20' W 003°01'0 0.0
2018-Aug-15 15:59N 43°20' W 003°01'0 0.0
2018-Aug-15 15:29N 43°20' W 003°01'0 0.0
2018-Aug-15 14:59N 43°20' W 003°01'0 0.0
2018-Aug-15 14:29N 43°20' W 003°01'0 0.0
2018-Aug-15 13:50N 43°20' W 003°01'0 0.0
2018-Aug-15 13:17N 43°20' W 003°01'0 0.0
2018-Aug-15 12:59N 43°20' W 003°01'0 0.0
2018-Aug-15 12:26N 43°20' W 003°01'0 0.0
2018-Aug-15 11:53N 43°20' W 003°01'0 0.0
2018-Aug-15 11:23N 43°20' W 003°01'0 0.0
2018-Aug-15 10:59N 43°20' W 003°01'0 0.0
2018-Aug-15 10:27N 43°20' W 003°01'0 0.0
2018-Aug-15 09:59N 43°20' W 003°01'0 0.0
2018-Aug-15 09:29N 43°20' W 003°01'0 0.0
2018-Aug-15 09:00N 43°20' W 003°01'0 0.0
2018-Aug-15 08:23N 43°20' W 003°01'0 0.0
2018-Aug-15 07:59N 43°20' W 003°01'0 0.0
2018-Aug-15 07:29N 43°20' W 003°01'0 0.0
2018-Aug-15 06:44N 43°20' W 003°01'0 0.0
2018-Aug-15 06:23N 43°20' W 003°01'0 0.0
2018-Aug-15 05:57N 43°20' W 003°01'0 0.0
2018-Aug-15 05:30N 43°20' W 003°01'0 0.0
2018-Aug-15 04:45N 43°20' W 003°01'0 0.0
2018-Aug-15 04:27N 43°20' W 003°01'0 0.0
2018-Aug-15 04:00N 43°20' W 003°01'0 0.0
2018-Aug-15 03:27N 43°20' W 003°01'0 0.0
2018-Aug-15 02:57N 43°20' W 003°01'0 0.0
2018-Aug-15 02:27N 43°20' W 003°01'0 0.0
2018-Aug-15 01:57N 43°20' W 003°01'0 0.0
2018-Aug-15 01:27N 43°20' W 003°01'0 0.0
2018-Aug-15 00:57N 43°20' W 003°01'0 0.0
2018-Aug-15 00:30N 43°20' W 003°01'0 0.0
2018-Aug-14 23:45N 43°20' W 003°01'0 0.0
2018-Aug-14 23:24N 43°20' W 003°01'0 0.0
2018-Aug-14 22:57N 43°20' W 003°01'0 0.0
2018-Aug-14 22:27N 43°20' W 003°01'0 0.0
2018-Aug-14 22:00N 43°20' W 003°01'0 0.0
2018-Aug-14 21:27N 43°20' W 003°01'0 0.0
2018-Aug-14 20:51N 43°20' W 003°01'0 0.0
2018-Aug-14 20:30N 43°20' W 003°01'0 0.0
2018-Aug-14 20:00N 43°20' W 003°01'0 0.0
2018-Aug-14 19:24N 43°20' W 003°01'0 0.0
2018-Aug-14 19:00N 43°20' W 003°01'0 0.0
2018-Aug-14 18:30N 43°20' W 003°01'0 0.0
2018-Aug-14 18:00N 43°20' W 003°01'0 0.0
2018-Aug-14 17:30N 43°20' W 003°01'0 0.0
2018-Aug-14 17:00N 43°20' W 003°01'0 0.0
2018-Aug-14 16:30N 43°20' W 003°01'0 0.0
2018-Aug-14 16:00N 43°20' W 003°01'0 0.0
2018-Aug-14 15:27N 43°20' W 003°01'0 0.0
2018-Aug-14 15:00N 43°20' W 003°01'0 0.0
2018-Aug-14 14:27N 43°20' W 003°01'0 0.0
2018-Aug-14 13:57N 43°20' W 003°01'0 0.0
2018-Aug-14 13:27N 43°20' W 003°01'0 0.0
2018-Aug-14 12:57N 43°20' W 003°01'0 0.0
2018-Aug-14 12:30N 43°20' W 003°01'0 0.0
2018-Aug-14 12:00N 43°20' W 003°01'0 0.0
2018-Aug-14 11:30N 43°20' W 003°01'0 0.0
2018-Aug-14 11:00N 43°20' W 003°01'0 0.0
2018-Aug-14 10:24N 43°20' W 003°01'0 0.2
2018-Aug-14 10:00N 43°20' W 003°01'1 1.2
2018-Aug-14 09:29N 43°20' W 003°02'3 4.0
2018-Aug-14 08:49N 43°22' W 003°04'2 4.8
2018-Aug-14 08:30N 43°23' W 003°05'3 5.3
2018-Aug-14 07:52N 43°25' W 003°09'2 6.3
2018-Aug-14 07:30N 43°27' W 003°12'3 6.4
2018-Aug-14 07:00N 43°28' W 003°16'  
Track history (hours):
 
Tides and Currents Weather Stations Pressure Air Temp Water Temp Dewpoint Dewpoint Depression Visibility Wind Speed Wind Dir Waves Ship Positions

Latino

Last reported at 2018-Aug-20 16:30 UTC. Time now 2018-Aug-20 16:46 UTC.
Position N 44°10' W 001°36'.

Length 12 m.

Type: Sailing vessel. MMSI: 205413010.

Date/timePositionNaut miles runAvg speedWind from/ knotsBaromVisibWave heightAir tempDewpointWater temp
2018-Aug-20 16:30N 44°10' W 001°36'3 6.1
2018-Aug-20 16:03N 44°08' W 001°37'0 6.0
2018-Aug-20 15:59N 44°07' W 001°37'3 5.9
2018-Aug-20 15:30N 44°04' W 001°38'3 5.6
2018-Aug-20 15:02N 44°02' W 001°39'0 5.4
2018-Aug-20 15:00N 44°02' W 001°39'5 5.4
2018-Aug-20 14:03N 43°57' W 001°40'0 5.4
2018-Aug-20 14:00N 43°56' W 001°40'3 5.2
2018-Aug-20 13:30N 43°54' W 001°40'2 5.2
2018-Aug-20 13:03N 43°52' W 001°41'0 5.2
2018-Aug-20 13:00N 43°51' W 001°41'3 5.2
2018-Aug-20 12:30N 43°49' W 001°41'3 5.3
2018-Aug-20 12:01N 43°46' W 001°42'0 5.4
2018-Aug-20 11:56N 43°46' W 001°42'2 5.4
2018-Aug-20 11:30N 43°43' W 001°43'2 5.3
2018-Aug-20 11:03N 43°41' W 001°43'0 5.3
2018-Aug-20 11:00N 43°41' W 001°43'3 5.3
2018-Aug-20 10:28N 43°38' W 001°44'2 5.4
2018-Aug-20 10:03N 43°36' W 001°44'0 5.5
2018-Aug-20 10:00N 43°36' W 001°44'3 5.3
2018-Aug-20 09:30N 43°33' W 001°45'2 4.9
2018-Aug-20 09:03N 43°31' W 001°45'0 4.2
2018-Aug-20 08:59N 43°30' W 001°46'3 5.3
2018-Aug-20 08:30N 43°28' W 001°46'3 5.9
2018-Aug-20 08:03N 43°25' W 001°47'0 3.0
2018-Aug-20 08:00N 43°25' W 001°47'3 0.2
2018-Aug-19 19:55N 43°23' W 001°48'0 0.0
2018-Aug-19 18:31N 43°23' W 001°48'0 0.0
2018-Aug-19 18:19N 43°23' W 001°48'0 0.0
2018-Aug-19 15:25N 43°23' W 001°48'0 0.0
2018-Aug-19 14:10N 43°23' W 001°48'0 0.0
2018-Aug-19 13:31N 43°23' W 001°48'0 0.0
2018-Aug-19 13:25N 43°23' W 001°48'0 0.1
2018-Aug-19 12:38N 43°23' W 001°48'1 3.0
2018-Aug-19 12:23N 43°23' W 001°47'1 3.7
2018-Aug-19 12:00N 43°24' W 001°49'2 4.7
2018-Aug-19 11:30N 43°23' W 001°52'2 4.8
2018-Aug-19 11:00N 43°22' W 001°55'2 4.8
2018-Aug-19 10:30N 43°22' W 001°58'2 4.8
2018-Aug-19 10:00N 43°21' W 002°02'2 4.9
2018-Aug-19 09:30N 43°21' W 002°05'3 5.0
2018-Aug-19 09:00N 43°20' W 002°08'3 4.9
2018-Aug-19 08:30N 43°19' W 002°12'2 4.4
2018-Aug-19 08:00N 43°19' W 002°14'  
2018-Aug-16 16:06N 43°18' W 002°15'0 4.0
2018-Aug-16 16:00N 43°19' W 002°15'2 3.7
2018-Aug-16 15:23N 43°19' W 002°12'2 5.5
2018-Aug-16 15:00N 43°19' W 002°14'4 7.1
2018-Aug-16 14:30N 43°20' W 002°19'3 5.8
2018-Aug-16 14:00N 43°21' W 002°23'3 5.5
2018-Aug-16 13:30N 43°23' W 002°26'3 6.2
2018-Aug-16 13:00N 43°24' W 002°30'3 6.8
2018-Aug-16 12:30N 43°26' W 002°34'3 6.5
2018-Aug-16 12:00N 43°27' W 002°38'3 6.6
2018-Aug-16 11:31N 43°29' W 002°42'3 6.0
2018-Aug-16 10:58N 43°30' W 002°46'3 6.0
2018-Aug-16 10:29N 43°29' W 002°50'3 5.7
2018-Aug-16 10:00N 43°29' W 002°54'5 5.3
2018-Aug-16 09:06N 43°26' W 002°59'1 5.5
2018-Aug-16 09:00N 43°26' W 002°60'3 5.0
2018-Aug-16 08:19N 43°24' W 003°04'4 4.1
2018-Aug-16 07:18N 43°20' W 003°01'0 0.8
2018-Aug-16 06:56N 43°20' W 003°01'0 0.0
2018-Aug-16 06:29N 43°20' W 003°01'0 0.0
2018-Aug-16 05:56N 43°20' W 003°01'0 0.0
2018-Aug-16 05:26N 43°20' W 003°01'0 0.0
2018-Aug-16 04:59N 43°20' W 003°01'0 0.0
2018-Aug-16 04:29N 43°20' W 003°01'0 0.0
2018-Aug-16 03:56N 43°20' W 003°01'0 0.0
2018-Aug-16 03:26N 43°20' W 003°01'0 0.0
2018-Aug-16 02:56N 43°20' W 003°01'0 0.0
2018-Aug-16 02:20N 43°20' W 003°01'0 0.0
2018-Aug-16 01:59N 43°20' W 003°01'0 0.0
2018-Aug-16 01:26N 43°20' W 003°01'0 0.0
2018-Aug-16 00:56N 43°20' W 003°01'0 0.0
2018-Aug-16 00:29N 43°20' W 003°01'0 0.0
2018-Aug-15 23:59N 43°20' W 003°01'0 0.0
2018-Aug-15 23:26N 43°20' W 003°01'0 0.0
2018-Aug-15 22:59N 43°20' W 003°01'0 0.0
2018-Aug-15 22:29N 43°20' W 003°01'0 0.0
2018-Aug-15 21:59N 43°20' W 003°01'0 0.0
2018-Aug-15 21:29N 43°20' W 003°01'0 0.0
2018-Aug-15 20:56N 43°20' W 003°01'0 0.0
2018-Aug-15 20:26N 43°20' W 003°01'0 0.0
2018-Aug-15 19:59N 43°20' W 003°01'0 0.0
2018-Aug-15 19:29N 43°20' W 003°01'0 0.0
2018-Aug-15 18:59N 43°20' W 003°01'0 0.0
2018-Aug-15 18:29N 43°20' W 003°01'0 0.0
2018-Aug-15 17:59N 43°20' W 003°01'0 0.0
2018-Aug-15 17:26N 43°20' W 003°01'0 0.0
2018-Aug-15 16:59N 43°20' W 003°01'0 0.0
2018-Aug-15 16:05N 43°20' W 003°01'0 0.0
2018-Aug-15 15:59N 43°20' W 003°01'0 0.0
2018-Aug-15 15:29N 43°20' W 003°01'0 0.0
2018-Aug-15 14:59N 43°20' W 003°01'0 0.0
2018-Aug-15 14:29N 43°20' W 003°01'0 0.0
2018-Aug-15 13:50N 43°20' W 003°01'0 0.0
2018-Aug-15 13:17N 43°20' W 003°01'0 0.0
2018-Aug-15 12:59N 43°20' W 003°01'0 0.0
2018-Aug-15 12:26N 43°20' W 003°01'0 0.0
2018-Aug-15 11:53N 43°20' W 003°01'0 0.0
2018-Aug-15 11:23N 43°20' W 003°01'0 0.0
2018-Aug-15 10:59N 43°20' W 003°01'0 0.0
2018-Aug-15 10:27N 43°20' W 003°01'0 0.0
2018-Aug-15 09:59N 43°20' W 003°01'0 0.0
2018-Aug-15 09:29N 43°20' W 003°01'0 0.0
2018-Aug-15 09:00N 43°20' W 003°01'0 0.0
2018-Aug-15 08:23N 43°20' W 003°01'0 0.0
2018-Aug-15 07:59N 43°20' W 003°01'0 0.0
2018-Aug-15 07:29N 43°20' W 003°01'0 0.0
2018-Aug-15 06:44N 43°20' W 003°01'0 0.0
2018-Aug-15 06:23N 43°20' W 003°01'0 0.0
2018-Aug-15 05:57N 43°20' W 003°01'0 0.0
2018-Aug-15 05:30N 43°20' W 003°01'0 0.0
2018-Aug-15 04:45N 43°20' W 003°01'0 0.0
2018-Aug-15 04:27N 43°20' W 003°01'0 0.0
2018-Aug-15 04:00N 43°20' W 003°01'0 0.0
2018-Aug-15 03:27N 43°20' W 003°01'0 0.0
2018-Aug-15 02:57N 43°20' W 003°01'0 0.0
2018-Aug-15 02:27N 43°20' W 003°01'0 0.0
2018-Aug-15 01:57N 43°20' W 003°01'0 0.0
2018-Aug-15 01:27N 43°20' W 003°01'0 0.0
2018-Aug-15 00:57N 43°20' W 003°01'0 0.0
2018-Aug-15 00:30N 43°20' W 003°01'0 0.0
2018-Aug-14 23:45N 43°20' W 003°01'0 0.0
2018-Aug-14 23:24N 43°20' W 003°01'0 0.0
2018-Aug-14 22:57N 43°20' W 003°01'0 0.0
2018-Aug-14 22:27N 43°20' W 003°01'0 0.0
2018-Aug-14 22:00N 43°20' W 003°01'0 0.0
2018-Aug-14 21:27N 43°20' W 003°01'0 0.0
2018-Aug-14 20:51N 43°20' W 003°01'0 0.0
2018-Aug-14 20:30N 43°20' W 003°01'0 0.0
2018-Aug-14 20:00N 43°20' W 003°01'0 0.0
2018-Aug-14 19:24N 43°20' W 003°01'0 0.0
2018-Aug-14 19:00N 43°20' W 003°01'0 0.0
2018-Aug-14 18:30N 43°20' W 003°01'0 0.0
2018-Aug-14 18:00N 43°20' W 003°01'0 0.0
2018-Aug-14 17:30N 43°20' W 003°01'0 0.0
2018-Aug-14 17:00N 43°20' W 003°01'0 0.0
2018-Aug-14 16:30N 43°20' W 003°01'0 0.0
2018-Aug-14 16:00N 43°20' W 003°01'0 0.0
2018-Aug-14 15:27N 43°20' W 003°01'0 0.0
2018-Aug-14 15:00N 43°20' W 003°01'0 0.0
2018-Aug-14 14:27N 43°20' W 003°01'0 0.0
2018-Aug-14 13:57N 43°20' W 003°01'0 0.0
2018-Aug-14 13:27N 43°20' W 003°01'0 0.0
2018-Aug-14 12:57N 43°20' W 003°01'0 0.0
2018-Aug-14 12:30N 43°20' W 003°01'0 0.0
2018-Aug-14 12:00N 43°20' W 003°01'0 0.0
2018-Aug-14 11:30N 43°20' W 003°01'0 0.0
2018-Aug-14 11:00N 43°20' W 003°01'0 0.0
2018-Aug-14 10:24N 43°20' W 003°01'0 0.2
2018-Aug-14 10:00N 43°20' W 003°01'1 1.2
2018-Aug-14 09:29N 43°20' W 003°02'3 4.0
2018-Aug-14 08:49N 43°22' W 003°04'2 4.8
2018-Aug-14 08:30N 43°23' W 003°05'3 5.3
2018-Aug-14 07:52N 43°25' W 003°09'2 6.3
2018-Aug-14 07:30N 43°27' W 003°12'3 6.4
2018-Aug-14 07:00N 43°28' W 003°16'  

Dump ship's entire track history